Terminal Aerodrome Forecast
Issued by NWS Shreveport, LA

Home | Current Version | Previous Version | Text Only | Print | Product List | Glossary On
Versions: 1 2 3 4 5 6 7 8 9 10 11 12 13 14 15 16 17 18 19 20 21 22 23 24 25 26
000
FTUS44 KSHV 241500 AAC
TAFTYR
TAF AMD
KTYR 241503Z 2415/2512 21013KT P6SM VCSH BKN018 BKN024 OVC045
     FM241800 23014G23KT P6SM VCTS BKN035CB
      TEMPO 2419/2421 5SM -TSRA BR
     FM250000 30008KT P6SM SKC
     FM250600 VRB03KT P6SM SKC=

USA.gov is the U.S. government's official web portal to all federal, state and local government web resources and services.